createdAt,value
2022-10-25T00:01:44.039Z,13.97
2022-10-25T00:04:11.033Z,16.45
2022-10-25T00:06:37.936Z,14.10
2022-10-25T00:09:04.933Z,15.65
2022-10-25T00:11:32.797Z,16.15
2022-10-25T00:14:02.457Z,14.52
2022-10-25T00:16:32.624Z,14.32
2022-10-25T00:18:59.472Z,16.15
2022-10-25T00:21:26.891Z,13.93
2022-10-25T00:23:53.814Z,12.95
2022-10-25T00:26:21.016Z,15.20
2022-10-25T00:28:48.318Z,15.52
2022-10-25T00:31:16.931Z,19.30
2022-10-25T00:33:44.798Z,15.25
2022-10-25T00:36:17.351Z,14.20
2022-10-25T00:38:45.784Z,15.07
2022-10-25T00:41:20.530Z,16.55
2022-10-25T00:43:53.663Z,14.27
2022-10-25T00:46:20.821Z,18.98
2022-10-25T00:49:02.566Z,14.38
2022-10-25T00:51:41.610Z,18.90
2022-10-25T00:54:13.072Z,18.00
2022-10-25T00:56:42.641Z,16.70
2022-10-25T00:59:14.465Z,18.85
2022-10-25T01:01:42.075Z,14.82
2022-10-25T01:04:13.144Z,14.05
2022-10-25T01:06:43.021Z,20.15
2022-10-25T01:09:13.638Z,18.73
2022-10-25T01:11:40.493Z,22.10
2022-10-25T01:14:10.362Z,23.48
2022-10-25T01:16:45.533Z,19.33
2022-10-25T01:19:30.878Z,20.23
2022-10-25T01:22:07.102Z,19.88
2022-10-25T01:24:52.336Z,16.23
2022-10-25T01:27:25.032Z,19.02
2022-10-25T01:30:15.578Z,19.77
2022-10-25T01:32:57.050Z,21.05
2022-10-25T01:35:31.252Z,23.80
2022-10-25T01:38:03.617Z,20.48
2022-10-25T01:40:39.638Z,16.50
2022-10-25T01:43:16.601Z,18.35
2022-10-25T01:46:17.288Z,22.17
2022-10-25T01:48:48.636Z,20.88
2022-10-25T01:51:17.824Z,15.98
2022-10-25T01:53:49.832Z,18.60
2022-10-25T01:56:41.540Z,19.38
2022-10-25T01:59:50.351Z,24.17
2022-10-25T02:02:26.713Z,25.77
2022-10-25T02:05:15.642Z,24.67
2022-10-25T02:07:48.346Z,23.58
2022-10-25T02:10:19.755Z,18.27
2022-10-25T02:13:02.131Z,18.10
2022-10-25T02:15:41.143Z,18.75
2022-10-25T02:18:14.210Z,20.75
2022-10-25T02:20:45.954Z,17.77
2022-10-25T02:23:15.316Z,20.23
2022-10-25T02:25:43.420Z,21.58
2022-10-25T02:28:12.832Z,27.90
2022-10-25T02:30:42.353Z,18.85
2022-10-25T02:33:09.753Z,20.88
2022-10-25T02:35:36.778Z,21.98
2022-10-25T02:38:04.183Z,23.13
2022-10-25T02:40:35.175Z,22.02
2022-10-25T02:43:02.068Z,25.33
2022-10-25T02:45:29.167Z,21.65
2022-10-25T02:47:55.972Z,17.48
2022-10-25T02:50:22.798Z,24.20
2022-10-25T02:52:49.821Z,26.52
2022-10-25T02:55:17.066Z,23.47
2022-10-25T02:57:43.850Z,24.42
2022-10-25T03:02:43.284Z,19.58
2022-10-25T03:05:10.155Z,18.23
2022-10-25T03:07:36.986Z,19.20
2022-10-25T03:10:04.114Z,27.85
2022-10-25T03:12:30.927Z,21.98
2022-10-25T03:14:57.768Z,25.25
2022-10-25T03:17:24.590Z,21.63
2022-10-25T03:19:51.404Z,19.52
2022-10-25T03:22:18.211Z,27.90
2022-10-25T03:24:45.044Z,19.95
2022-10-25T03:27:11.846Z,24.02
2022-10-25T03:29:38.685Z,22.95
2022-10-25T03:32:07.734Z,21.38
2022-10-25T03:34:34.751Z,23.50
2022-10-25T03:37:01.584Z,20.85
2022-10-25T03:39:28.437Z,26.10
2022-10-25T03:41:55.229Z,24.42
2022-10-25T03:44:22.166Z,24.00
2022-10-25T03:46:48.991Z,18.13
2022-10-25T03:49:15.876Z,22.67
2022-10-25T03:51:42.710Z,25.70
2022-10-25T03:54:09.508Z,23.77
2022-10-25T03:56:36.446Z,18.77
2022-10-25T03:59:03.294Z,24.97
2022-10-25T04:01:30.276Z,19.95
2022-10-25T04:03:57.161Z,20.67
2022-10-25T04:06:24.095Z,20.13
2022-10-25T04:08:50.981Z,20.52
2022-10-25T04:11:17.787Z,24.85
2022-10-25T04:13:44.647Z,23.88
2022-10-25T04:16:13.012Z,19.63
2022-10-25T04:18:40.682Z,18.73
2022-10-25T04:21:07.502Z,16.88
2022-10-25T04:23:34.446Z,17.55
2022-10-25T04:26:01.367Z,26.42
2022-10-25T04:28:28.215Z,18.33
2022-10-25T04:30:55.062Z,32.38
2022-10-25T04:33:21.872Z,32.60
2022-10-25T04:35:58.128Z,25.50
2022-10-25T04:38:25.342Z,28.58
2022-10-25T04:40:56.802Z,28.20
2022-10-25T04:43:24.662Z,22.52
2022-10-25T04:45:51.600Z,18.67
2022-10-25T04:48:18.687Z,20.80
2022-10-25T04:50:46.217Z,24.30
2022-10-25T04:53:13.141Z,22.77
2022-10-25T04:55:40.072Z,24.13
2022-10-25T04:58:06.907Z,22.80
2022-10-25T05:00:33.742Z,20.08
2022-10-25T05:03:00.736Z,23.73
2022-10-25T05:05:27.772Z,22.90
2022-10-25T05:07:54.581Z,21.75
2022-10-25T05:10:21.664Z,18.65
2022-10-25T05:12:48.781Z,21.70
2022-10-25T05:15:15.929Z,14.73
2022-10-25T05:17:51.653Z,23.50
2022-10-25T05:20:18.516Z,19.15
2022-10-25T05:22:45.578Z,24.57
2022-10-25T05:25:12.665Z,22.02
2022-10-25T05:27:39.634Z,26.17
2022-10-25T05:30:07.091Z,19.70
2022-10-25T05:32:34.188Z,20.02
2022-10-25T05:35:01.072Z,17.17
2022-10-25T05:37:28.136Z,14.73
2022-10-25T05:39:55.216Z,16.92
2022-10-25T05:42:22.155Z,22.03
2022-10-25T05:44:49.030Z,19.15
2022-10-25T05:47:15.936Z,18.45
2022-10-25T05:49:42.984Z,19.67
2022-10-25T05:52:10.505Z,16.23
2022-10-25T05:54:37.361Z,23.00
2022-10-25T05:57:04.223Z,18.35
2022-10-25T05:59:31.055Z,16.42
2022-10-25T06:01:58.096Z,25.08
2022-10-25T06:04:25.145Z,17.40
2022-10-25T06:06:53.078Z,20.30
2022-10-25T06:09:19.940Z,17.55
2022-10-25T06:11:46.953Z,16.65
2022-10-25T06:14:13.840Z,16.38
2022-10-25T06:16:40.898Z,16.85
2022-10-25T06:19:08.122Z,18.83
2022-10-25T06:21:35.328Z,16.95
2022-10-25T06:24:02.312Z,15.15
2022-10-25T06:26:30.775Z,16.70
2022-10-25T06:29:00.103Z,24.88
2022-10-25T06:31:28.332Z,16.52
2022-10-25T06:33:55.302Z,16.27
2022-10-25T06:36:24.035Z,50.35
2022-10-25T06:38:51.552Z,57.78
2022-10-25T06:41:20.769Z,25.48
2022-10-25T06:43:48.411Z,20.83
2022-10-25T06:46:23.191Z,18.25
2022-10-25T06:48:51.164Z,19.40
2022-10-25T06:51:18.222Z,18.88
2022-10-25T06:53:45.298Z,15.38
2022-10-25T06:56:14.905Z,17.87
2022-10-25T06:58:42.462Z,13.27
2022-10-25T07:01:15.112Z,15.98
2022-10-25T07:03:43.090Z,17.63
2022-10-25T07:06:11.539Z,20.45
2022-10-25T07:08:40.730Z,19.42
2022-10-25T07:11:12.657Z,17.33
2022-10-25T07:13:39.618Z,20.38
2022-10-25T07:16:08.956Z,23.00
2022-10-25T07:18:37.102Z,20.50
2022-10-25T07:21:15.826Z,13.40
2022-10-25T07:23:43.757Z,17.63
2022-10-25T07:26:17.898Z,20.13
2022-10-25T07:28:47.115Z,20.92
2022-10-25T07:31:19.853Z,19.50
2022-10-25T07:33:47.121Z,16.77
2022-10-25T07:36:14.137Z,14.98
2022-10-25T07:38:41.131Z,18.63
2022-10-25T07:41:08.708Z,12.85
2022-10-25T07:43:37.556Z,16.42
2022-10-25T07:46:05.674Z,14.53
2022-10-25T07:48:33.165Z,16.83
2022-10-25T07:51:08.329Z,15.87
2022-10-25T07:53:35.248Z,23.17
2022-10-25T07:56:02.574Z,15.50
2022-10-25T07:58:29.534Z,17.67
2022-10-25T08:01:09.094Z,17.80
2022-10-25T08:03:36.327Z,15.80
2022-10-25T08:06:03.996Z,23.15
2022-10-25T08:08:31.443Z,16.95
2022-10-25T08:10:59.586Z,20.20
2022-10-25T08:13:26.507Z,13.45
2022-10-25T08:15:55.605Z,15.88
2022-10-25T08:18:23.760Z,19.30
2022-10-25T08:21:06.483Z,12.65
2022-10-25T08:23:33.435Z,16.05
2022-10-25T08:26:01.596Z,14.90
2022-10-25T08:28:30.774Z,17.77
2022-10-25T08:30:57.639Z,18.20
2022-10-25T08:33:24.587Z,21.20
2022-10-25T08:35:51.490Z,11.43
2022-10-25T08:38:18.654Z,18.57
2022-10-25T08:41:26.280Z,13.25
2022-10-25T08:44:14.259Z,17.60
2022-10-25T08:47:02.421Z,14.20
2022-10-25T08:49:52.780Z,15.03
2022-10-25T08:52:45.306Z,17.27
2022-10-25T08:55:19.542Z,15.07
2022-10-25T08:57:49.865Z,12.18
2022-10-25T09:00:36.036Z,15.25
2022-10-25T09:03:04.619Z,24.58
2022-10-25T09:06:19.108Z,18.88
2022-10-25T09:09:07.632Z,10.10
2022-10-25T09:11:57.608Z,9.93
2022-10-25T09:14:59.181Z,10.98
2022-10-25T09:17:43.909Z,15.20
2022-10-25T09:20:27.292Z,10.02
2022-10-25T09:23:00.944Z,10.65
2022-10-25T09:25:42.008Z,14.52
2022-10-25T09:28:16.653Z,15.38
2022-10-25T09:30:44.512Z,14.25
2022-10-25T09:33:18.136Z,12.40
2022-10-25T09:35:48.565Z,13.93
2022-10-25T09:38:26.341Z,11.70
2022-10-25T09:41:02.063Z,12.75
2022-10-25T09:43:44.648Z,14.43
2022-10-25T09:46:22.276Z,13.60
2022-10-25T09:49:19.563Z,11.57
2022-10-25T09:52:22.615Z,15.60
2022-10-25T09:55:02.936Z,17.83
2022-10-25T09:57:29.863Z,14.70
2022-10-25T09:59:56.763Z,14.63
2022-10-25T10:02:26.889Z,10.47
2022-10-25T10:04:54.696Z,11.30
2022-10-25T10:07:35.872Z,12.25
2022-10-25T10:10:07.567Z,19.63
2022-10-25T10:12:41.918Z,13.85
2022-10-25T10:15:30.210Z,20.05
2022-10-25T10:18:18.996Z,17.75
2022-10-25T10:21:22.155Z,13.52
2022-10-25T10:23:49.058Z,18.40
2022-10-25T10:26:21.995Z,15.17
2022-10-25T10:28:54.540Z,16.15
2022-10-25T10:31:21.402Z,14.30
2022-10-25T10:33:51.252Z,13.52
2022-10-25T10:36:24.682Z,15.30
2022-10-25T10:38:52.135Z,16.83
2022-10-25T10:41:26.129Z,20.23
2022-10-25T10:44:16.884Z,16.55
2022-10-25T10:46:46.182Z,12.35
2022-10-25T10:49:14.924Z,14.45
2022-10-25T10:51:45.552Z,17.70
2022-10-25T10:54:13.686Z,17.92
2022-10-25T10:56:40.540Z,12.52
2022-10-25T10:59:32.487Z,16.60
2022-10-25T11:02:31.233Z,15.63
2022-10-25T11:04:58.303Z,15.05
2022-10-25T11:07:29.891Z,13.27
2022-10-25T11:10:45.126Z,16.08
2022-10-25T11:13:18.769Z,13.65
2022-10-25T11:16:06.797Z,10.48
2022-10-25T11:18:33.623Z,14.07
2022-10-25T11:21:10.333Z,13.63
2022-10-25T11:23:57.176Z,13.60
2022-10-25T11:26:43.492Z,15.40
2022-10-25T11:29:26.148Z,12.43
2022-10-25T11:32:12.871Z,9.57
2022-10-25T11:35:15.604Z,12.63
2022-10-25T11:37:47.131Z,12.95
2022-10-25T11:40:21.831Z,11.17
2022-10-25T11:43:31.477Z,18.83
2022-10-25T11:46:35.456Z,15.52
2022-10-25T11:49:23.137Z,12.70
2022-10-25T11:52:17.966Z,15.52
2022-10-25T11:54:50.579Z,15.70
2022-10-25T11:57:32.579Z,13.75
2022-10-25T12:00:17.996Z,11.40
2022-10-25T12:03:23.272Z,12.37
2022-10-25T12:06:14.183Z,25.87
2022-10-25T12:09:12.691Z,12.25
2022-10-25T12:11:55.527Z,14.82
2022-10-25T12:14:36.118Z,17.35
2022-10-25T12:17:05.648Z,13.05
2022-10-25T12:19:43.098Z,17.50
2022-10-25T12:22:23.981Z,13.95
2022-10-25T12:25:01.550Z,13.80
2022-10-25T12:27:30.342Z,14.15
2022-10-25T12:30:03.090Z,14.13
2022-10-25T12:32:41.698Z,14.70
2022-10-25T12:35:22.496Z,19.08
2022-10-25T12:37:59.200Z,21.73
2022-10-25T12:40:28.583Z,17.38
2022-10-25T12:43:04.594Z,20.20
2022-10-25T12:46:08.868Z,12.60
2022-10-25T12:48:50.738Z,12.53
2022-10-25T12:51:50.976Z,15.85
2022-10-25T12:54:30.574Z,13.98
2022-10-25T12:57:06.153Z,14.00
2022-10-25T12:59:41.856Z,15.77
2022-10-25T13:02:21.135Z,15.05
2022-10-25T13:05:09.268Z,13.82
2022-10-25T13:07:37.690Z,12.90
2022-10-25T13:10:14.577Z,12.20
2022-10-25T13:12:42.335Z,16.42
2022-10-25T13:15:18.525Z,17.27
2022-10-25T13:17:59.342Z,14.43
2022-10-25T13:20:35.316Z,17.45
2022-10-25T13:23:40.790Z,11.45
2022-10-25T13:26:11.821Z,9.65
2022-10-25T13:28:51.914Z,10.05
2022-10-25T13:31:34.162Z,15.77
2022-10-25T13:34:21.061Z,8.88
2022-10-25T13:36:56.165Z,8.33
2022-10-25T13:39:45.314Z,10.80
2022-10-25T13:42:15.168Z,14.50
2022-10-25T13:45:03.204Z,12.13
2022-10-25T13:47:54.520Z,11.65
2022-10-25T13:50:32.380Z,14.63
2022-10-25T13:53:23.407Z,8.63
2022-10-25T13:56:03.092Z,13.25
2022-10-25T13:58:31.909Z,9.90
2022-10-25T14:01:17.744Z,13.68
2022-10-25T14:03:50.470Z,9.15
2022-10-25T14:06:24.929Z,12.02
2022-10-25T14:09:18.028Z,11.07
2022-10-25T14:11:53.408Z,10.90
2022-10-25T14:14:35.146Z,9.57
2022-10-25T14:17:11.284Z,10.82
2022-10-25T14:22:51.586Z,7.32
2022-10-25T14:25:18.342Z,5.80
2022-10-25T14:27:45.428Z,7.60
2022-10-25T14:30:35.457Z,9.90
2022-10-25T14:33:05.387Z,12.35
2022-10-25T14:35:48.383Z,9.38
2022-10-25T14:38:23.907Z,9.43
2022-10-25T14:40:51.962Z,9.60
2022-10-25T14:43:25.552Z,10.73
2022-10-25T14:46:12.377Z,10.07
2022-10-25T14:48:39.857Z,13.85
2022-10-25T14:51:14.551Z,10.52
2022-10-25T14:53:52.807Z,13.43
2022-10-25T14:56:23.140Z,12.13
2022-10-25T14:58:50.737Z,10.00
2022-10-25T15:01:21.430Z,9.07
2022-10-25T15:03:52.636Z,13.27
2022-10-25T15:06:22.508Z,12.48
2022-10-25T15:08:52.308Z,10.45
2022-10-25T15:11:22.699Z,12.13
2022-10-25T15:13:51.530Z,14.27
2022-10-25T15:16:37.406Z,14.90
2022-10-25T15:19:07.056Z,10.00
2022-10-25T15:21:42.952Z,12.15
2022-10-25T15:24:19.920Z,14.77
2022-10-25T15:27:00.404Z,11.52
2022-10-25T15:29:42.549Z,10.10
2022-10-25T15:32:24.186Z,11.13
2022-10-25T15:34:54.078Z,7.67
2022-10-25T15:37:23.353Z,13.38
2022-10-25T15:39:52.537Z,7.10
2022-10-25T15:42:20.071Z,7.47
2022-10-25T15:44:47.251Z,9.50
2022-10-25T15:47:30.401Z,14.70
2022-10-25T15:49:57.776Z,8.97
2022-10-25T15:52:25.376Z,8.77
2022-10-25T15:54:52.212Z,9.30
2022-10-25T15:57:19.132Z,10.30
2022-10-25T15:59:46.375Z,7.45
2022-10-25T16:02:27.494Z,12.38
2022-10-25T16:04:54.697Z,11.40
2022-10-25T16:07:22.321Z,15.68
2022-10-25T16:09:49.172Z,8.73
2022-10-25T16:12:32.083Z,9.52
2022-10-25T16:14:59.008Z,10.55
2022-10-25T16:17:25.890Z,8.32
2022-10-25T16:19:52.754Z,8.80
2022-10-25T16:22:19.588Z,14.05
2022-10-25T16:24:46.570Z,11.07
2022-10-25T16:27:14.005Z,8.68
2022-10-25T16:29:41.156Z,8.77
2022-10-25T16:32:08.207Z,7.63
2022-10-25T16:34:35.108Z,8.88
2022-10-25T16:37:01.946Z,10.00
2022-10-25T16:39:28.820Z,11.73
2022-10-25T16:41:58.304Z,9.45
2022-10-25T16:44:25.240Z,9.47
2022-10-25T16:46:52.039Z,9.75
2022-10-25T16:49:18.944Z,9.18
2022-10-25T16:51:45.800Z,7.35
2022-10-25T16:54:12.991Z,9.77
2022-10-25T16:56:39.963Z,13.97
2022-10-25T16:59:06.878Z,10.88
2022-10-25T17:01:37.991Z,7.15
2022-10-25T17:04:07.093Z,11.02
2022-10-25T17:06:42.498Z,7.50
2022-10-25T17:09:11.005Z,8.02
2022-10-25T17:11:37.894Z,7.30
2022-10-25T17:14:05.379Z,6.35
2022-10-25T17:16:33.405Z,7.10
2022-10-25T17:19:00.534Z,6.32
2022-10-25T17:21:28.360Z,6.77
2022-10-25T17:23:56.275Z,12.88
2022-10-25T17:26:23.171Z,9.00
2022-10-25T17:28:50.168Z,10.07
2022-10-25T17:31:17.016Z,16.60
2022-10-25T17:33:44.235Z,7.75
2022-10-25T17:36:14.510Z,10.30
2022-10-25T17:38:42.239Z,10.52
2022-10-25T17:41:09.557Z,9.40
2022-10-25T17:43:38.297Z,13.30
2022-10-25T17:46:07.936Z,10.52
2022-10-25T17:48:35.064Z,11.93
2022-10-25T17:51:07.992Z,15.82
2022-10-25T17:53:35.506Z,14.18
2022-10-25T17:56:17.576Z,16.70
2022-10-25T17:58:46.086Z,11.50
2022-10-25T18:01:16.258Z,11.60
2022-10-25T18:03:43.159Z,8.80
2022-10-25T18:06:13.455Z,8.18
2022-10-25T18:08:40.462Z,11.32
2022-10-25T18:11:15.124Z,10.90
2022-10-25T18:13:42.286Z,14.95
2022-10-25T18:16:10.788Z,17.38
2022-10-25T18:18:38.533Z,15.65
2022-10-25T18:21:15.591Z,14.80
2022-10-25T18:23:42.576Z,10.20
2022-10-25T18:26:11.826Z,11.65
2022-10-25T18:28:39.434Z,10.10
2022-10-25T18:31:12.538Z,10.13
2022-10-25T18:33:41.838Z,12.27
2022-10-25T18:36:19.466Z,6.32
2022-10-25T18:38:47.915Z,12.82
2022-10-25T18:41:23.308Z,14.33
2022-10-25T18:43:50.786Z,10.20
2022-10-25T18:46:18.129Z,11.50
2022-10-25T18:48:48.916Z,14.57
2022-10-25T18:51:15.778Z,7.97
2022-10-25T18:53:42.635Z,14.20
2022-10-25T18:56:11.960Z,11.48
2022-10-25T18:58:39.381Z,13.00
2022-10-25T19:01:12.177Z,7.80
2022-10-25T19:03:39.825Z,8.32
2022-10-25T19:06:07.893Z,11.40
2022-10-25T19:08:35.763Z,13.88
2022-10-25T19:11:04.515Z,11.87
2022-10-25T19:13:31.393Z,20.02
2022-10-25T19:15:58.947Z,10.77
2022-10-25T19:18:27.486Z,14.45
2022-10-25T19:20:54.784Z,35.72
2022-10-25T19:23:21.992Z,20.50
2022-10-25T19:25:48.877Z,11.60
2022-10-25T19:28:15.811Z,10.68
2022-10-25T19:30:42.663Z,13.32
2022-10-25T19:33:10.210Z,9.95
2022-10-25T19:35:37.271Z,11.98
2022-10-25T19:38:04.179Z,15.68
2022-10-25T19:40:31.026Z,12.07
2022-10-25T19:42:58.179Z,10.13
2022-10-25T19:45:25.052Z,9.70
2022-10-25T19:47:55.968Z,7.88
2022-10-25T19:50:24.250Z,11.32
2022-10-25T19:52:51.622Z,12.20
2022-10-25T19:55:18.492Z,13.15
2022-10-25T19:57:45.591Z,11.73
2022-10-25T20:00:13.706Z,12.48
2022-10-25T20:02:40.736Z,10.20
2022-10-25T20:05:08.154Z,12.18
2022-10-25T20:07:35.163Z,10.52
2022-10-25T20:10:02.039Z,7.35
2022-10-25T20:12:30.587Z,14.65
2022-10-25T20:14:58.427Z,10.50
2022-10-25T20:17:25.411Z,13.65
2022-10-25T20:19:52.285Z,10.43
2022-10-25T20:22:19.148Z,11.63
2022-10-25T20:24:46.069Z,9.07
2022-10-25T20:27:12.950Z,12.07
2022-10-25T20:29:40.111Z,12.13
2022-10-25T20:32:07.069Z,10.57
2022-10-25T20:34:35.416Z,13.95
2022-10-25T20:37:03.796Z,8.90
2022-10-25T20:39:30.745Z,8.18
2022-10-25T20:41:57.666Z,10.03
2022-10-25T20:44:24.636Z,5.68
2022-10-25T20:46:51.751Z,13.50
2022-10-25T20:49:18.681Z,7.20
2022-10-25T20:51:45.531Z,12.05
2022-10-25T20:54:12.545Z,10.30
2022-10-25T20:56:39.859Z,10.10
2022-10-25T20:59:07.832Z,9.35
2022-10-25T21:01:35.284Z,11.52
2022-10-25T21:04:02.280Z,7.63
2022-10-25T21:06:29.111Z,10.65
2022-10-25T21:08:56.087Z,7.95
2022-10-25T21:11:22.916Z,9.15
2022-10-25T21:13:49.851Z,7.95
2022-10-25T21:16:17.294Z,9.57
2022-10-25T21:18:44.548Z,10.05
2022-10-25T21:21:17.838Z,7.22
2022-10-25T21:23:48.648Z,7.22
2022-10-25T21:26:16.073Z,12.05
2022-10-25T21:28:43.276Z,10.90
2022-10-25T21:31:12.616Z,11.68
2022-10-25T21:33:41.895Z,9.82
2022-10-25T21:36:11.746Z,13.95
2022-10-25T21:38:39.445Z,12.13
2022-10-25T21:41:14.985Z,10.77
2022-10-25T21:43:46.791Z,13.63
2022-10-25T21:46:15.140Z,11.57
2022-10-25T21:48:43.817Z,10.50
2022-10-25T21:51:10.976Z,14.18
2022-10-25T21:53:37.840Z,8.77
2022-10-25T21:56:13.199Z,10.15
2022-10-25T21:58:41.779Z,11.93
2022-10-25T22:01:11.103Z,15.65
2022-10-25T22:03:38.639Z,12.55
2022-10-25T22:06:10.859Z,12.77
2022-10-25T22:08:38.048Z,12.38
2022-10-25T22:11:08.037Z,11.10
2022-10-25T22:13:35.579Z,10.50
2022-10-25T22:16:13.955Z,11.52
2022-10-25T22:18:41.992Z,11.65
2022-10-25T22:21:12.064Z,7.82
2022-10-25T22:23:39.531Z,10.10
2022-10-25T22:26:11.717Z,9.95
2022-10-25T22:28:40.919Z,13.63
2022-10-25T22:31:16.933Z,11.88
2022-10-25T22:33:44.893Z,15.07
2022-10-25T22:36:15.091Z,10.93
2022-10-25T22:38:42.328Z,11.55
2022-10-25T22:41:14.332Z,13.48
2022-10-25T22:43:41.803Z,10.13
2022-10-25T22:46:11.922Z,16.02
2022-10-25T22:48:41.658Z,12.77
2022-10-25T22:51:09.279Z,10.45
2022-10-25T22:53:37.395Z,10.57
2022-10-25T22:56:16.310Z,14.55
2022-10-25T22:58:48.381Z,12.18
2022-10-25T23:01:18.096Z,13.50
2022-10-25T23:03:46.822Z,9.75
2022-10-25T23:06:16.011Z,9.17
2022-10-25T23:08:43.651Z,9.68
2022-10-25T23:11:14.876Z,12.55
2022-10-25T23:13:42.462Z,10.80
2022-10-25T23:16:10.735Z,12.35
2022-10-25T23:18:38.313Z,10.38
2022-10-25T23:21:09.982Z,11.25
2022-10-25T23:23:38.721Z,13.90
2022-10-25T23:28:39.075Z,13.20
2022-10-25T23:31:11.432Z,10.45
2022-10-25T23:33:38.844Z,10.88
2022-10-25T23:36:19.414Z,13.15
2022-10-25T23:38:50.577Z,12.30
2022-10-25T23:41:18.668Z,11.27
2022-10-25T23:43:45.826Z,9.85
2022-10-25T23:46:12.971Z,11.35
2022-10-25T23:48:40.099Z,13.00
2022-10-25T23:51:11.952Z,12.02
2022-10-25T23:53:39.320Z,12.48
2022-10-25T23:56:08.230Z,16.30
2022-10-25T23:58:35.252Z,10.32
